Time;durP1;ratioP1;P1;durP2;ratioP2;P2;SDS_P1;SDS_P2;PMS_P1;PMS_P2;Temp;Humidity;BMP_temperature;BMP_pressure;BME280_temperature;BME280_humidity;BME280_pressure;Samples;Min_cycle;Max_cycle;Signal;HPM_P1;HPM_P2
2024/01/31 00:14:23;;;;;;;15.43;5.13;;;;;;;6.20;100.00;103229.13;5146151;27;20548;-87
2024/01/31 00:27:42;;;;;;;12.37;4.50;;;;;;;6.20;100.00;103253.41;5113736;28;20039;-87
2024/01/31 00:33:57;;;;;;;12.57;3.90;;;;;;;6.18;100.00;103263.47;5114511;28;20085;-87
2024/01/31 00:36:23;;;;;;;14.25;3.47;;;;;;;6.13;100.00;103261.16;5114603;28;20040;-87
2024/01/31 00:38:48;;;;;;;13.03;3.87;;;;;;;6.11;100.00;103266.69;5095757;28;20491;-87
2024/01/31 00:41:21;;;;;;;12.57;3.60;;;;;;;6.09;100.00;103263.22;5078544;28;20088;-87
2024/01/31 00:47:19;;;;;;;9.60;3.17;;;;;;;6.09;100.00;103267.78;5114306;28;20058;-87
2024/01/31 00:56:39;;;;;;;12.95;3.35;;;;;;;6.07;100.00;103269.75;5113252;28;20070;-89
2024/01/31 00:59:04;;;;;;;14.32;3.30;;;;;;;6.05;100.00;103264.47;5079764;28;20031;-86
2024/01/31 01:01:30;;;;;;;14.17;3.40;;;;;;;6.05;100.00;103277.09;5096086;28;20031;-87
2024/01/31 01:07:41;;;;;;;11.70;2.97;;;;;;;6.01;100.00;103276.50;5113380;28;20035;-87
2024/01/31 01:14:20;;;;;;;9.20;2.47;;;;;;;6.05;100.00;103291.41;5115229;28;20126;-87
2024/01/31 01:20:09;;;;;;;6.00;2.42;;;;;;;6.03;100.00;103284.47;5118147;28;20091;-87
2024/01/31 01:26:26;;;;;;;9.55;2.33;;;;;;;6.05;100.00;103288.72;5118027;28;20041;-87
2024/01/31 01:32:42;;;;;;;11.52;2.45;;;;;;;6.08;100.00;103291.19;5117903;28;20037;-87
2024/01/31 01:35:29;;;;;;;8.75;1.90;;;;;;;6.11;100.00;103290.06;5117349;28;20032;-87
2024/01/31 01:37:54;;;;;;;12.90;2.08;;;;;;;6.10;100.00;103283.81;5116486;28;20471;-87
2024/01/31 01:40:22;;;;;;;13.93;2.43;;;;;;;6.10;100.00;103285.66;5118288;28;20039;-87
2024/01/31 01:42:47;;;;;;;11.35;2.63;;;;;;;6.07;100.00;103284.06;5117871;28;20108;-87
2024/01/31 01:45:13;;;;;;;10.30;2.03;;;;;;;6.08;100.00;103282.22;5116319;28;20077;-87
2024/01/31 01:47:42;;;;;;;12.90;2.30;;;;;;;6.12;100.00;103289.94;5116488;28;20035;-87
2024/01/31 01:50:10;;;;;;;8.93;2.55;;;;;;;6.07;100.00;103288.63;5117533;28;20027;-87
2024/01/31 01:52:36;;;;;;;11.55;2.22;;;;;;;6.11;100.00;103287.38;5116192;28;20429;-87
2024/01/31 01:55:04;;;;;;;9.60;2.05;;;;;;;6.08;100.00;103282.22;5098818;28;20036;-87
2024/01/31 01:57:33;;;;;;;10.05;2.08;;;;;;;6.10;100.00;103286.53;5115793;28;20103;-87
2024/01/31 01:59:59;;;;;;;10.50;2.33;;;;;;;6.12;100.00;103289.09;5117313;28;20023;-87
2024/01/31 02:02:26;;;;;;;13.20;2.40;;;;;;;6.07;100.00;103270.59;5116140;28;20376;-87
2024/01/31 02:04:51;;;;;;;13.68;2.22;;;;;;;6.08;100.00;103283.09;5116930;28;20031;-88
2024/01/31 02:07:24;;;;;;;13.15;2.22;;;;;;;6.07;100.00;103278.69;5115845;28;20030;-87
2024/01/31 02:09:59;;;;;;;15.55;3.28;;;;;;;6.10;100.00;103280.28;5117336;28;20058;-87
2024/01/31 02:12:25;;;;;;;13.32;2.80;;;;;;;6.09;100.00;103274.00;5116183;28;20028;-87
2024/01/31 02:14:52;;;;;;;14.47;2.50;;;;;;;6.10;100.00;103267.66;5120774;27;20050;-87
2024/01/31 02:17:17;;;;;;;11.38;2.50;;;;;;;6.10;100.00;103267.66;5137668;27;20015;-87
2024/01/31 02:19:46;;;;;;;8.23;1.97;;;;;;;6.09;100.00;103274.00;5102309;27;20462;-87
2024/01/31 02:22:17;;;;;;;10.50;2.33;;;;;;;6.12;100.00;103279.16;5119593;27;20054;-87
2024/01/31 02:24:42;;;;;;;10.27;2.60;;;;;;;6.13;100.00;103275.47;5118350;28;20075;-87
2024/01/31 02:27:08;;;;;;;10.87;2.30;;;;;;;6.13;100.00;103263.84;5137263;27;20027;-87
2024/01/31 02:29:33;;;;;;;8.23;2.40;;;;;;;6.07;100.00;103275.16;5118692;27;20102;-87
2024/01/31 02:31:59;;;;;;;14.17;2.50;;;;;;;6.05;100.00;103275.25;5118541;27;20034;-87
2024/01/31 02:34:25;;;;;;;9.75;2.80;;;;;;;6.01;100.00;103273.81;5101633;27;20359;-87
2024/01/31 02:36:50;;;;;;;12.63;3.20;;;;;;;6.00;100.00;103274.78;5118519;27;20095;-87
2024/01/31 02:39:16;;;;;;;14.80;3.35;;;;;;;5.98;100.00;103271.38;5118721;27;20424;-86
2024/01/31 02:41:41;;;;;;;16.83;3.27;;;;;;;6.04;100.00;103276.25;5118910;27;20023;-87
2024/01/31 02:44:07;;;;;;;12.57;3.00;;;;;;;6.03;100.00;103284.47;5101558;27;20052;-87
2024/01/31 02:46:32;;;;;;;10.03;3.27;;;;;;;5.97;100.00;103283.13;5101320;27;20031;-87
2024/01/31 02:49:00;;;;;;;10.82;2.55;;;;;;;5.92;100.00;103283.47;5119196;27;20122;-87
2024/01/31 02:51:52;;;;;;;10.77;2.92;;;;;;;5.94;100.00;103280.63;5119148;27;20080;-87
2024/01/31 03:19:04;;;;;;;14.15;3.33;;;;;;;5.85;100.00;103257.16;5136406;27;20050;-87
2024/01/31 03:22:00;;;;;;;14.15;3.20;;;;;;;5.84;100.00;103250.88;5118633;27;20031;-87
2024/01/31 03:28:28;;;;;;;14.40;3.88;;;;;;;5.86;100.00;103238.16;5136333;27;20076;-87
2024/01/31 03:30:54;;;;;;;12.65;3.92;;;;;;;5.87;100.00;103239.00;5100959;27;20039;-87
2024/01/31 03:33:19;;;;;;;12.70;4.30;;;;;;;5.86;100.00;103240.84;5084055;27;20128;-87
2024/01/31 03:35:59;;;;;;;11.85;5.05;;;;;;;5.88;100.00;103232.66;5136259;27;20031;-87
2024/01/31 03:38:24;;;;;;;14.43;4.43;;;;;;;5.82;100.00;103236.69;5117467;27;20027;-87
2024/01/31 03:40:50;;;;;;;16.63;5.20;;;;;;;5.77;100.00;103222.72;5117943;27;20475;-87
2024/01/31 03:43:15;;;;;;;17.30;6.10;;;;;;;5.81;100.00;103243.06;5117402;27;20033;-87
2024/01/31 03:45:41;;;;;;;15.47;5.47;;;;;;;5.78;100.00;103232.53;5117106;27;20038;-87
2024/01/31 03:48:47;;;;;;;15.87;5.50;;;;;;;5.83;100.00;103221.38;5117475;27;20043;-87
2024/01/31 03:54:39;;;;;;;15.57;5.05;;;;;;;5.86;100.00;103226.50;5135914;27;20105;-87
2024/01/31 03:57:04;;;;;;;13.30;4.97;;;;;;;5.86;100.00;103226.50;5135779;27;20023;-88
2024/01/31 03:59:29;;;;;;;12.13;5.10;;;;;;;5.85;100.00;103230.22;5117035;27;20035;-87
2024/01/31 04:01:55;;;;;;;14.80;5.80;;;;;;;5.86;100.00;103224.69;5117862;27;20035;-87
2024/01/31 04:04:20;;;;;;;17.50;5.87;;;;;;;5.84;100.00;103228.50;5100302;27;20474;-87
2024/01/31 04:06:46;;;;;;;14.38;5.65;;;;;;;5.85;100.00;103227.50;5099807;27;20039;-87
2024/01/31 04:09:43;;;;;;;12.37;5.27;;;;;;;5.82;100.00;103233.13;5100157;27;20042;-87
2024/01/31 04:15:46;;;;;;;15.80;6.07;;;;;;;5.79;100.00;103221.63;5135449;27;20147;-87
2024/01/31 04:18:18;;;;;;;17.77;5.75;;;;;;;5.75;100.00;103222.00;5100003;27;20110;-88
2024/01/31 04:20:43;;;;;;;19.83;6.18;;;;;;;5.74;100.00;103231.94;5099746;27;20031;-87
2024/01/31 04:23:26;;;;;;;19.40;7.00;;;;;;;5.71;100.00;103224.06;5117293;27;20035;-87
2024/01/31 04:32:55;;;;;;;18.75;7.13;;;;;;;5.58;100.00;103223.38;5134378;27;20023;-87
2024/01/31 04:38:55;;;;;;;24.60;7.07;;;;;;;5.56;100.00;103226.19;5135016;27;20107;-87
2024/01/31 04:41:20;;;;;;;17.85;7.22;;;;;;;5.51;100.00;103220.31;5100049;27;20035;-87
2024/01/31 04:43:46;;;;;;;21.47;7.23;;;;;;;5.48;100.00;103223.28;5082641;27;20034;-87
2024/01/31 05:21:12;;;;;;;19.33;8.63;;;;;;;5.22;100.00;103214.56;5134221;28;20088;-87
2024/01/31 05:30:43;;;;;;;22.80;8.27;;;;;;;5.17;100.00;103216.78;5133178;28;20401;-87
2024/01/31 05:40:31;;;;;;;26.90;8.93;;;;;;;5.20;100.00;103211.16;5132981;27;20355;-87
2024/01/31 06:13:58;;;;;;;26.33;9.98;;;;;;;5.26;100.00;103224.97;5136504;27;20043;-87
2024/01/31 06:32:01;;;;;;;26.65;10.82;;;;;;;5.18;100.00;103202.34;5137415;27;20064;-88
2024/01/31 06:34:27;;;;;;;33.03;11.75;;;;;;;5.16;100.00;103190.84;5136910;27;20043;-88
2024/01/31 06:36:56;;;;;;;27.42;11.07;;;;;;;5.14;100.00;103193.66;5101656;27;20614;-89
2024/01/31 06:39:27;;;;;;;27.95;11.38;;;;;;;5.09;100.00;103177.00;5118749;27;20035;-87
2024/01/31 06:41:52;;;;;;;27.10;12.63;;;;;;;5.10;100.00;103184.13;5118382;27;20474;-87
2024/01/31 06:44:18;;;;;;;31.92;12.18;;;;;;;5.07;100.00;103169.06;5101465;27;20051;-87
2024/01/31 06:46:48;;;;;;;27.77;11.97;;;;;;;5.05;100.00;103165.66;5118235;27;20031;-87
2024/01/31 06:49:14;;;;;;;30.52;12.52;;;;;;;5.03;100.00;103156.81;5102038;27;20027;-88
2024/01/31 06:51:40;;;;;;;28.53;12.43;;;;;;;5.02;100.00;103157.81;5098083;28;20118;-87
2024/01/31 06:54:09;;;;;;;25.80;12.10;;;;;;;5.02;100.00;103159.63;5114983;28;20036;-88
2024/01/31 06:56:35;;;;;;;32.33;13.40;;;;;;;5.05;100.00;103152.19;5094345;28;20077;-88
2024/01/31 06:59:01;;;;;;;31.20;12.38;;;;;;;5.07;100.00;103162.84;5114723;28;20031;-86
2024/01/31 07:01:26;;;;;;;32.05;13.77;;;;;;;5.09;100.00;103161.75;5097552;28;20030;-87
2024/01/31 07:03:52;;;;;;;35.43;13.50;;;;;;;5.07;100.00;103168.22;5097337;28;20024;-86
2024/01/31 07:06:18;;;;;;;32.07;13.30;;;;;;;5.06;100.00;103175.44;5114993;28;20031;-87
2024/01/31 07:08:44;;;;;;;30.17;12.85;;;;;;;5.12;100.00;103192.06;5115789;28;20073;-87
2024/01/31 07:11:10;;;;;;;29.60;13.30;;;;;;;5.08;100.00;103199.53;5114026;28;20020;-86
2024/01/31 07:13:38;;;;;;;33.90;13.13;;;;;;;5.14;100.00;103219.69;5114366;28;20126;-87
2024/01/31 07:16:04;;;;;;;35.15;13.18;;;;;;;5.10;100.00;103229.88;5114659;28;20063;-86
2024/01/31 07:18:30;;;;;;;31.25;14.30;;;;;;;5.14;100.00;103234.03;5113927;27;20049;-87
2024/01/31 07:24:23;;;;;;;32.95;13.10;;;;;;;5.16;100.00;103252.75;5136108;27;20497;-87
2024/01/31 07:26:48;;;;;;;33.73;14.03;;;;;;;5.18;100.00;103261.53;5083307;27;20055;-87
2024/01/31 07:29:14;;;;;;;32.17;14.35;;;;;;;5.18;100.00;103264.25;5100252;27;20129;-88
2024/01/31 07:31:47;;;;;;;34.73;13.83;;;;;;;5.19;100.00;103274.88;5115446;28;20066;-86
2024/01/31 07:34:12;;;;;;;35.42;14.15;;;;;;;5.21;100.00;103275.63;5115047;28;20050;-87
2024/01/31 07:36:38;;;;;;;33.95;13.88;;;;;;;5.19;100.00;103266.81;5080697;28;20031;-86
2024/01/31 07:39:04;;;;;;;37.72;14.57;;;;;;;5.18;100.00;103262.44;5079678;28;20445;-87
2024/01/31 07:41:30;;;;;;;39.55;14.30;;;;;;;5.22;100.00;103271.09;5096994;28;20123;-87
2024/01/31 07:43:56;;;;;;;31.63;14.07;;;;;;;5.22;100.00;103271.09;5114972;28;20073;-86
2024/01/31 07:46:21;;;;;;;33.75;14.35;;;;;;;5.23;100.00;103273.69;5104877;27;20057;-87
2024/01/31 07:48:49;;;;;;;36.90;14.73;;;;;;;5.22;100.00;103274.63;5135424;27;20031;-87
2024/01/31 07:51:15;;;;;;;36.63;13.90;;;;;;;5.24;100.00;103272.72;5101633;27;20078;-86
2024/01/31 07:53:41;;;;;;;33.97;14.90;;;;;;;5.22;100.00;103266.56;5116828;27;20147;-86
2024/01/31 07:56:06;;;;;;;34.70;14.27;;;;;;;5.26;100.00;103272.59;5116660;27;20479;-88
2024/01/31 07:58:32;;;;;;;31.33;14.13;;;;;;;5.25;100.00;103274.41;5117132;27;20038;-87
2024/01/31 08:00:58;;;;;;;38.22;14.32;;;;;;;5.29;100.00;103268.81;5116903;27;20027;-87
2024/01/31 08:03:23;;;;;;;36.77;14.43;;;;;;;5.31;100.00;103267.69;5098064;27;20027;-87
2024/01/31 08:05:48;;;;;;;35.67;15.47;;;;;;;5.33;100.00;103268.44;5117102;27;20035;-87
2024/01/31 08:08:16;;;;;;;34.08;14.55;;;;;;;5.33;100.00;103262.16;5117338;27;20035;-89
2024/01/31 08:11:02;;;;;;;31.37;13.87;;;;;;;5.39;100.00;103257.16;5100153;27;20027;-87
2024/01/31 08:13:27;;;;;;;38.63;15.10;;;;;;;5.38;100.00;103252.75;5099929;27;20111;-87
2024/01/31 08:15:53;;;;;;;35.17;13.90;;;;;;;5.39;100.00;103250.94;5083314;27;20474;-87
2024/01/31 08:18:27;;;;;;;31.58;14.50;;;;;;;5.40;100.00;103248.13;5135232;27;20034;-87
2024/01/31 08:20:52;;;;;;;36.73;15.63;;;;;;;5.44;100.00;103252.25;5099713;27;20495;-87
2024/01/31 08:26:18;;;;;;;40.33;15.27;;;;;;;5.51;100.00;103254.50;5134563;27;20030;-87
2024/01/31 08:28:44;;;;;;;36.95;15.15;;;;;;;5.51;100.00;103252.66;5116750;27;20035;-87
2024/01/31 08:31:10;;;;;;;39.58;14.35;;;;;;;5.52;100.00;103256.19;5083004;27;20470;-87
2024/01/31 08:33:35;;;;;;;34.97;14.90;;;;;;;5.55;100.00;103254.13;5099827;27;20027;-87
2024/01/31 08:36:35;;;;;;;38.13;14.65;;;;;;;5.58;100.00;103248.47;5117303;27;20299;-87
2024/01/31 08:39:01;;;;;;;37.63;14.82;;;;;;;5.59;100.00;103242.09;5116781;27;20374;-87
2024/01/31 08:41:29;;;;;;;37.78;14.98;;;;;;;5.65;100.00;103243.44;5134405;27;20102;-87
2024/01/31 08:43:55;;;;;;;35.28;15.02;;;;;;;5.68;100.00;103234.25;5116396;27;20039;-87
2024/01/31 08:46:26;;;;;;;37.23;15.17;;;;;;;5.70;100.00;103224.19;5116862;28;20045;-87
2024/01/31 08:49:02;;;;;;;38.33;15.60;;;;;;;5.75;100.00;103222.84;5117717;28;20080;-87
2024/01/31 08:51:32;;;;;;;38.28;15.68;;;;;;;5.82;100.00;103238.50;5116564;27;20038;-87
2024/01/31 08:53:58;;;;;;;38.90;15.48;;;;;;;5.79;100.00;103224.31;5133672;27;20023;-87
2024/01/31 08:56:23;;;;;;;39.63;15.07;;;;;;;5.80;100.00;103220.66;5098895;28;20462;-88
2024/01/31 08:58:49;;;;;;;37.83;15.33;;;;;;;5.85;100.00;103214.03;5115980;28;20487;-88
2024/01/31 09:01:14;;;;;;;39.37;15.23;;;;;;;5.84;100.00;103206.94;5116106;28;20031;-87
2024/01/31 09:03:45;;;;;;;32.63;14.70;;;;;;;5.87;100.00;103214.75;5099450;28;20367;-87
2024/01/31 09:09:37;;;;;;;41.20;14.77;;;;;;;5.91;100.00;103202.75;5113894;28;20046;-88
2024/01/31 09:12:19;;;;;;;38.00;15.20;;;;;;;5.94;100.00;103199.81;5096870;28;20039;-88
2024/01/31 09:14:45;;;;;;;37.65;15.57;;;;;;;5.97;100.00;103196.88;5095554;28;20479;-88
2024/01/31 09:17:10;;;;;;;38.10;15.07;;;;;;;5.97;100.00;103184.25;5061771;28;20031;-88
2024/01/31 09:19:40;;;;;;;42.30;15.93;;;;;;;5.94;100.00;103187.16;5092084;28;20530;-87
2024/01/31 09:22:08;;;;;;;44.50;16.08;;;;;;;5.90;100.00;103176.78;5114931;28;20305;-87
2024/01/31 09:24:33;;;;;;;42.92;16.67;;;;;;;5.93;100.00;103169.28;5095663;28;20036;-87
2024/01/31 09:27:04;;;;;;;40.23;16.40;;;;;;;6.01;100.00;103167.81;5078891;28;20039;-87
2024/01/31 09:29:57;;;;;;;44.30;18.20;;;;;;;6.11;100.00;103171.47;5078869;28;20476;-87
2024/01/31 09:32:23;;;;;;;42.33;16.67;;;;;;;6.02;100.00;103154.22;5095044;28;20051;-87
2024/01/31 09:34:51;;;;;;;43.40;17.70;;;;;;;6.05;100.00;103159.34;5096786;28;20197;-89
2024/01/31 09:37:18;;;;;;;46.70;16.80;;;;;;;6.12;100.00;103157.00;5082778;28;20039;-87
2024/01/31 09:40:05;;;;;;;;;;;;;;;;;;;;;
2024/01/31 09:42:31;;;;;;;42.53;17.38;;;;;;;6.26;100.00;103161.22;5098247;28;20028;-87
2024/01/31 09:45:01;;;;;;;41.60;16.47;;;;;;;6.27;100.00;103154.84;5062013;28;20119;-88
2024/01/31 09:47:27;;;;;;;38.45;17.52;;;;;;;6.27;100.00;103144.91;5091382;28;20038;-87
2024/01/31 09:49:56;;;;;;;40.42;17.42;;;;;;;6.34;100.00;103147.13;5099112;28;20039;-87
2024/01/31 09:52:29;;;;;;;36.92;14.60;;;;;;;6.39;100.00;103143.03;5117452;28;20080;-87
2024/01/31 09:54:58;;;;;;;38.10;17.20;;;;;;;6.41;100.00;103138.34;5112543;28;20069;-88
2024/01/31 09:57:24;;;;;;;36.15;15.65;;;;;;;6.55;100.00;103130.91;5116609;28;20475;-87
2024/01/31 09:59:50;;;;;;;35.88;16.02;;;;;;;6.65;100.00;103142.63;5098368;28;20498;-86
2024/01/31 10:02:16;;;;;;;33.58;16.38;;;;;;;6.71;100.00;103142.09;5116556;28;20027;-87
2024/01/31 10:04:47;;;;;;;34.80;15.98;;;;;;;6.80;100.00;103151.22;5098576;28;20077;-87
2024/01/31 10:07:35;;;;;;;29.88;13.45;;;;;;;6.82;100.00;103142.00;5116959;28;20060;-88
2024/01/31 10:10:00;;;;;;;29.42;13.93;;;;;;;6.93;100.00;103142.91;5084661;28;20027;-88
2024/01/31 10:12:32;;;;;;;27.93;12.83;;;;;;;7.02;100.00;103159.13;5098713;28;20039;-88
2024/01/31 10:14:57;;;;;;;27.73;12.52;;;;;;;7.08;100.00;103152.34;5098320;28;20039;-87
2024/01/31 10:17:23;;;;;;;26.33;12.40;;;;;;;7.11;100.00;103156.63;5082132;28;20042;-88
2024/01/31 10:20:16;;;;;;;23.98;11.60;;;;;;;7.02;100.00;103156.44;5098228;28;20066;-88
2024/01/31 10:22:46;;;;;;;24.17;12.60;;;;;;;7.05;100.00;103163.41;5098480;28;20469;-88
2024/01/31 10:25:17;;;;;;;25.00;12.05;;;;;;;7.07;100.00;103166.84;5098599;28;20027;-88
2024/01/31 10:31:06;;;;;;;21.83;11.15;;;;;;;7.06;100.00;103177.75;5137414;27;20513;-88
2024/01/31 10:33:49;;;;;;;23.50;11.18;;;;;;;7.11;100.00;103176.38;5101516;27;20045;-88
2024/01/31 10:36:20;;;;;;;18.73;10.23;;;;;;;7.07;100.00;103180.34;5118844;27;20100;-88
2024/01/31 10:38:48;;;;;;;21.10;9.90;;;;;;;7.06;100.00;103175.06;5118409;27;20024;-87
2024/01/31 10:41:18;;;;;;;23.38;10.73;;;;;;;6.99;100.00;103167.50;5118670;27;20551;-87
2024/01/31 10:43:48;;;;;;;17.80;10.32;;;;;;;6.96;100.00;103161.53;5119204;27;20425;-88
2024/01/31 10:46:21;;;;;;;17.58;9.65;;;;;;;6.95;100.00;103167.91;5101270;27;20035;-88
2024/01/31 10:48:47;;;;;;;18.85;10.30;;;;;;;6.91;100.00;103164.63;5118382;27;20034;-87
2024/01/31 10:51:16;;;;;;;16.47;9.77;;;;;;;6.93;100.00;103173.44;5118146;27;20027;-87
2024/01/31 10:54:01;;;;;;;20.35;10.25;;;;;;;6.91;100.00;103164.63;5136459;27;20034;-89
2024/01/31 10:56:27;;;;;;;17.80;9.15;;;;;;;6.92;100.00;103160.09;5118409;27;20026;-88
2024/01/31 10:58:56;;;;;;;16.70;9.20;;;;;;;6.91;100.00;103158.38;5136262;27;20114;-88
2024/01/31 11:01:37;;;;;;;17.58;9.45;;;;;;;6.90;100.00;103145.88;5136572;27;20019;-88
2024/01/31 11:04:09;;;;;;;17.13;9.40;;;;;;;6.90;100.00;103145.88;5136337;27;20034;-88
2024/01/31 11:06:47;;;;;;;19.10;10.00;;;;;;;6.83;100.00;103143.69;5117795;27;20026;-88
2024/01/31 11:09:31;;;;;;;17.92;9.65;;;;;;;6.86;100.00;103139.88;5118855;27;20026;-88
2024/01/31 11:12:04;;;;;;;17.53;9.53;;;;;;;6.87;100.00;103140.75;5118771;27;20038;-88
2024/01/31 11:14:30;;;;;;;14.55;8.88;;;;;;;6.88;100.00;103134.34;5119270;27;20027;-88
2024/01/31 11:17:12;;;;;;;18.13;10.13;;;;;;;6.84;100.00;103137.31;5136694;27;20034;-88
2024/01/31 11:20:16;;;;;;;17.40;10.18;;;;;;;6.88;100.00;103135.22;5118596;27;20061;-88
2024/01/31 11:22:41;;;;;;;19.27;10.30;;;;;;;6.83;100.00;103113.16;5116135;28;20125;-87
2024/01/31 11:25:07;;;;;;;17.50;10.23;;;;;;;6.82;100.00;103106.94;5097243;28;20130;-88
2024/01/31 11:27:33;;;;;;;16.23;8.80;;;;;;;6.83;100.00;103107.78;5096727;28;20122;-88
2024/01/31 11:30:03;;;;;;;17.00;9.50;;;;;;;6.83;100.00;103105.91;5063755;28;20032;-88
2024/01/31 11:32:33;;;;;;;17.67;10.02;;;;;;;6.79;100.00;103096.41;5115115;28;20459;-88
2024/01/31 11:35:00;;;;;;;19.05;10.38;;;;;;;6.84;100.00;103090.59;5098056;28;20032;-88
2024/01/31 11:37:34;;;;;;;19.83;11.17;;;;;;;6.91;100.00;103090.91;5099377;28;20031;-88
2024/01/31 11:40:03;;;;;;;22.52;11.63;;;;;;;6.91;100.00;103083.69;5097181;28;20031;-87
2024/01/31 11:42:29;;;;;;;20.08;10.60;;;;;;;6.90;100.00;103073.00;5115459;28;20095;-88
2024/01/31 11:44:54;;;;;;;21.33;10.48;;;;;;;6.89;100.00;103066.75;5096731;28;20027;-88
2024/01/31 11:47:23;;;;;;;17.73;10.57;;;;;;;6.86;100.00;103056.22;5115116;28;20463;-88
2024/01/31 11:49:49;;;;;;;19.35;11.20;;;;;;;6.85;100.00;103039.19;5114661;28;20078;-88
2024/01/31 11:52:15;;;;;;;17.67;10.67;;;;;;;6.83;100.00;103051.94;5089590;28;20540;-88
2024/01/31 11:54:43;;;;;;;18.67;10.15;;;;;;;6.80;100.00;103032.50;5111395;27;20042;-89
2024/01/31 11:57:09;;;;;;;16.47;10.37;;;;;;;6.76;100.00;103029.22;5081895;28;20047;-88
2024/01/31 11:59:36;;;;;;;19.48;10.30;;;;;;;6.77;100.00;103027.38;5075776;28;20016;-88
2024/01/31 12:02:05;;;;;;;15.23;9.57;;;;;;;6.71;100.00;103011.75;5087861;28;20028;-89
2024/01/31 12:04:33;;;;;;;15.60;9.20;;;;;;;6.76;100.00;103017.56;5114260;28;20032;-89
2024/01/31 12:07:18;;;;;;;21.58;9.82;;;;;;;6.74;100.00;103009.59;5078470;28;20488;-90
2024/01/31 12:09:51;;;;;;;16.90;9.30;;;;;;;6.74;100.00;103003.38;5095754;28;20045;-90
2024/01/31 12:12:22;;;;;;;15.45;8.60;;;;;;;6.74;100.00;103014.16;5096133;28;20045;-88
2024/01/31 12:14:49;;;;;;;12.23;7.63;;;;;;;6.77;100.00;103008.47;5082116;28;20031;-89
2024/01/31 12:17:22;;;;;;;13.97;7.80;;;;;;;6.69;100.00;103006.47;5101472;28;20118;-88
2024/01/31 12:19:48;;;;;;;12.57;7.32;;;;;;;6.70;100.00;102996.53;5111394;28;20047;-88
2024/01/31 12:22:18;;;;;;;13.57;7.80;;;;;;;6.68;100.00;102996.66;5110312;28;20051;-88
2024/01/31 12:24:44;;;;;;;11.27;6.57;;;;;;;6.71;100.00;102998.25;5112692;28;20045;-88
2024/01/31 12:27:15;;;;;;;9.57;7.15;;;;;;;6.71;100.00;102987.47;5112093;28;20112;-88
2024/01/31 12:29:48;;;;;;;10.17;6.33;;;;;;;6.68;100.00;102978.63;5095660;28;20039;-88
2024/01/31 12:32:13;;;;;;;10.57;6.57;;;;;;;6.69;100.00;102987.59;5112496;28;20414;-89
2024/01/31 12:34:39;;;;;;;11.32;6.65;;;;;;;6.68;100.00;102980.47;5112590;28;20027;-88
2024/01/31 12:37:07;;;;;;;10.30;6.47;;;;;;;6.72;100.00;102992.72;5112622;28;20077;-88
2024/01/31 12:39:54;;;;;;;10.68;6.35;;;;;;;6.67;100.00;102973.38;5113126;28;20027;-88
2024/01/31 12:42:19;;;;;;;10.68;6.38;;;;;;;6.66;100.00;102975.22;5096182;28;20118;-88
2024/01/31 12:44:45;;;;;;;11.68;6.72;;;;;;;6.63;100.00;102969.28;5103286;28;20502;-88
2024/01/31 12:47:22;;;;;;;9.33;5.83;;;;;;;6.66;100.00;102963.59;5112335;28;20041;-88
2024/01/31 12:49:47;;;;;;;12.50;6.22;;;;;;;6.68;100.00;102962.44;5112693;28;20490;-89
2024/01/31 12:52:15;;;;;;;7.70;5.27;;;;;;;6.74;100.00;102962.91;5112394;28;20024;-88
2024/01/31 12:54:40;;;;;;;9.18;5.65;;;;;;;6.78;100.00;102958.94;5113317;28;20030;-88
2024/01/31 12:57:07;;;;;;;9.13;5.80;;;;;;;6.90;100.00;102962.38;5112141;28;20387;-87
2024/01/31 12:59:35;;;;;;;10.50;5.47;;;;;;;7.12;100.00;102967.50;5099325;28;20078;-88
2024/01/31 13:02:00;;;;;;;7.88;5.15;;;;;;;7.38;100.00;102964.25;5112803;28;20475;-88
2024/01/31 13:04:28;;;;;;;8.40;4.13;;;;;;;7.47;100.00;102965.22;5113319;28;20020;-89
2024/01/31 13:06:56;;;;;;;9.70;3.80;;;;;;;7.53;100.00;102968.22;5097710;28;20050;-88
2024/01/31 13:09:31;;;;;;;6.70;4.00;;;;;;;7.63;100.00;102962.81;5101149;28;20055;-88
2024/01/31 13:11:57;;;;;;;7.15;3.58;;;;;;;7.75;100.00;102966.22;5091435;28;20089;-89
2024/01/31 13:14:34;;;;;;;6.17;3.23;;;;;;;7.50;100.00;102962.25;5117816;28;20020;-88
2024/01/31 13:17:02;;;;;;;5.50;3.10;;;;;;;7.37;100.00;102958.00;5108313;28;20036;-88
2024/01/31 13:19:30;;;;;;;5.40;2.75;;;;;;;7.26;100.00;102952.72;5098404;28;20100;-88
2024/01/31 13:21:55;;;;;;;6.45;2.30;;;;;;;7.22;100.00;102948.63;5116596;27;20039;-89
2024/01/31 13:24:31;;;;;;;5.87;2.40;;;;;;;7.14;100.00;102948.47;5118982;27;20084;-90
2024/01/31 13:26:56;;;;;;;3.65;1.90;;;;;;;7.09;97.94;102942.66;5118753;27;20031;-89
2024/01/31 13:29:24;;;;;;;3.97;2.30;;;;;;;7.08;98.04;102949.88;5137169;27;20164;-88
2024/01/31 13:31:50;;;;;;;3.53;1.70;;;;;;;7.02;96.88;102937.78;5106833;28;20110;-88
2024/01/31 13:34:15;;;;;;;3.63;1.97;;;;;;;6.94;98.96;102926.00;5104746;27;20893;-88
2024/01/31 13:36:41;;;;;;;3.67;1.83;;;;;;;7.01;99.64;102938.81;5118401;27;20065;-88
2024/01/31 13:39:06;;;;;;;3.75;1.67;;;;;;;7.00;98.60;102933.56;5110768;28;20031;-89
2024/01/31 13:41:35;;;;;;;3.63;2.10;;;;;;;6.98;99.59;102922.03;5112849;27;20035;-88
2024/01/31 13:44:00;;;;;;;6.43;2.30;;;;;;;6.99;100.00;102921.88;5118894;27;20026;-88
2024/01/31 13:46:26;;;;;;;4.73;2.30;;;;;;;7.08;98.16;102912.09;5118710;27;20031;-88
2024/01/31 13:48:56;;;;;;;3.13;1.90;;;;;;;7.02;100.00;102904.56;5107050;28;20024;-89
2024/01/31 13:51:25;;;;;;;4.27;1.73;;;;;;;7.06;99.60;102903.28;5088099;27;20532;-88
2024/01/31 13:53:53;;;;;;;4.38;1.60;;;;;;;7.16;97.91;102904.16;5119119;27;20031;-87
2024/01/31 13:56:18;;;;;;;4.20;1.55;;;;;;;7.33;93.83;102896.31;5104926;27;20080;-87
2024/01/31 13:58:51;;;;;;;7.57;2.00;;;;;;;7.40;91.59;102888.47;5088578;28;20549;-87
2024/01/31 14:01:17;;;;;;;4.00;1.40;;;;;;;7.33;91.75;102880.13;5105562;27;20027;-88
2024/01/31 14:03:45;;;;;;;5.70;1.73;;;;;;;7.33;90.87;102872.00;5118773;27;20470;-88
2024/01/31 14:06:13;;;;;;;5.43;1.60;;;;;;;7.31;91.97;102863.22;5137396;27;20031;-87
2024/01/31 14:08:38;;;;;;;2.50;1.30;;;;;;;7.28;91.03;102860.78;5104752;27;20046;-88
2024/01/31 14:11:11;;;;;;;3.58;1.42;;;;;;;7.39;92.02;102860.63;5111645;27;20035;-88
2024/01/31 14:13:39;;;;;;;7.50;1.73;;;;;;;7.26;91.76;102846.56;5118640;27;20038;-88
2024/01/31 14:16:07;;;;;;;4.45;1.40;;;;;;;7.24;90.52;102853.97;5105097;27;20034;-88
2024/01/31 14:18:33;;;;;;;6.53;1.70;;;;;;;7.25;91.80;102847.56;5118022;27;20034;-88
2024/01/31 14:20:58;;;;;;;2.53;1.20;;;;;;;7.29;91.79;102846.28;5116562;27;20062;-88
2024/01/31 14:23:24;;;;;;;4.13;1.40;;;;;;;7.24;92.43;102849.41;5118203;27;20135;-87
2024/01/31 14:25:50;;;;;;;7.30;1.80;;;;;;;7.27;93.67;102848.28;5099856;28;20059;-88
2024/01/31 14:28:15;;;;;;;3.33;1.30;;;;;;;7.32;91.20;102843.28;5109185;27;20088;-87
2024/01/31 14:30:41;;;;;;;5.77;1.57;;;;;;;7.35;91.56;102834.91;5103894;27;20030;-89
2024/01/31 14:33:06;;;;;;;4.43;1.40;;;;;;;7.40;91.12;102835.31;5104899;27;20015;-87
2024/01/31 14:35:31;;;;;;;4.00;1.40;;;;;;;7.36;91.22;102826.66;5100411;27;20116;-88
2024/01/31 14:37:59;;;;;;;3.97;1.38;;;;;;;7.35;91.08;102816.88;5118154;27;20019;-87
2024/01/31 14:40:25;;;;;;;4.97;1.73;;;;;;;7.37;89.88;102804.06;5118107;27;20034;-87
2024/01/31 14:42:50;;;;;;;2.45;1.13;;;;;;;7.40;90.45;102802.91;5132173;27;20019;-88
2024/01/31 14:45:18;;;;;;;4.18;1.50;;;;;;;7.41;88.99;102790.25;5080858;28;20028;-88
2024/01/31 14:47:47;;;;;;;4.40;1.17;;;;;;;7.41;88.27;102783.03;5102226;27;20039;-88
2024/01/31 14:50:14;;;;;;;3.80;1.27;;;;;;;7.29;89.80;102793.16;5126645;27;20031;-88
2024/01/31 14:52:43;;;;;;;5.50;1.00;;;;;;;7.23;91.53;102779.38;5100783;27;20030;-88
2024/01/31 14:55:18;;;;;;;;;;;;;;;;;;;;;
2024/01/31 14:57:44;;;;;;;2.28;1.20;;;;;;;7.22;92.30;102789.31;5135970;27;20039;-87
2024/01/31 15:00:13;;;;;;;2.90;1.30;;;;;;;7.19;92.78;102782.38;5117639;27;20114;-87